Time;durP1;ratioP1;P1;durP2;ratioP2;P2;SDS_P1;SDS_P2;PMS_P1;PMS_P2;Temp;Humidity;BMP_temperature;BMP_pressure;BME280_temperature;BME280_humidity;BME280_pressure;Samples;Min_cycle;Max_cycle;Signal;HPM_P1;HPM_P2
2020/12/24 00:03:49;;;;;;;5.47;1.63;;;;;;;;;;6336573;22;20066;-90
2020/12/24 00:06:40;;;;;;;1.42;1.33;;;;;;;;;;6311678;22;20066;-90
2020/12/24 00:10:18;;;;;;;1.70;1.20;;;;;;;;;;6305576;22;20099;-91
2020/12/24 00:14:29;;;;;;;2.30;1.33;;;8.70;99.90;;;;;;6336110;22;20067;-90
2020/12/24 00:17:26;;;;;;;2.72;1.10;;;;;;;;;;6304383;22;19999;-89
2020/12/24 00:20:16;;;;;;;1.70;1.40;;;;;;;;;;6253198;22;20058;-91
2020/12/24 00:23:09;;;;;;;1.70;1.33;;;;;;;;;;6234485;22;20074;-92
2020/12/24 00:26:09;;;;;;;1.95;1.75;;;8.30;99.90;;;;;;6288101;22;20059;-90
2020/12/24 00:29:56;;;;;;;5.07;1.73;;;8.20;99.90;;;;;;6284515;22;20059;-90
2020/12/24 00:33:17;;;;;;;1.23;1.20;;;8.10;99.90;;;;;;6278197;22;20027;-89
2020/12/24 00:36:09;;;;;;;7.55;2.10;;;;;;;;;;6306696;22;20016;-89
2020/12/24 00:39:00;;;;;;;1.88;1.30;;;;;;;;;;6280126;22;20007;-90
2020/12/24 00:42:14;;;;;;;1.27;1.20;;;7.90;99.90;;;;;;6281909;22;20067;-90
2020/12/24 00:45:04;;;;;;;4.03;1.95;;;;;;;;;;6305324;22;20086;-90
2020/12/24 00:48:00;;;;;;;1.40;1.30;;;;;;;;;;6310815;22;20006;-90
2020/12/24 00:50:46;;;;;;;1.10;1.10;;;;;;;;;;6329881;22;20015;-90
2020/12/24 00:53:22;;;;;;;2.00;1.15;;;7.70;99.90;;;;;;6307814;22;20011;-90
2020/12/24 00:55:57;;;;;;;2.38;2.17;;;;;;;;;;6327630;22;20057;-90
2020/12/24 00:58:38;;;;;;;2.22;1.15;;;;;;;;;;6283422;22;20075;-89
2020/12/24 01:01:25;;;;;;;1.08;1.08;;;;;;;;;;6333200;22;20091;-89
2020/12/24 01:08:27;;;;;;;2.67;1.00;;;7.50;99.90;;;;;;6277675;22;20006;-90
2020/12/24 01:11:01;;;;;;;1.20;1.20;;;;;;;;;;6251488;22;20122;-91
2020/12/24 01:13:42;;;;;;;3.95;1.92;;;;;;;;;;6253075;22;20072;-91
2020/12/24 01:16:33;;;;;;;4.22;1.30;;;;;;;;;;6230112;22;20083;-89
2020/12/24 01:19:10;;;;;;;1.27;1.20;;;;;;;;;;6252338;22;20051;-90
2020/12/24 01:21:59;;;;;;;2.58;1.50;;;;;;;;;;6255707;22;20056;-90
2020/12/24 01:24:45;;;;;;;1.70;1.60;;;;;;;;;;6249896;22;20063;-91
2020/12/24 01:28:25;;;;;;;2.78;1.38;;;7.30;99.90;;;;;;6298573;22;20055;-90
2020/12/24 01:31:00;;;;;;;4.80;1.40;;;;;;;;;;6226712;22;20005;-91
2020/12/24 01:33:50;;;;;;;8.35;1.90;;;;;;;;;;6250589;22;20056;-90
2020/12/24 01:36:47;;;;;;;7.22;1.88;;;;;;;;;;6294188;22;20067;-89
2020/12/24 01:39:29;;;;;;;7.32;2.22;;;;;;;;;;6278018;22;20073;-89
2020/12/24 01:41:59;;;;;;;4.75;1.25;;;;;;;;;;6276949;22;20051;-90
2020/12/24 01:44:38;;;;;;;4.05;1.40;;;;;;;;;;6247347;22;20020;-90
2020/12/24 01:47:48;;;;;;;4.07;3.47;;;7.30;99.90;;;;;;6250116;22;20060;-89
2020/12/24 01:50:31;;;;;;;1.63;1.52;;;;;;;;;;6253071;22;20083;-91
2020/12/24 01:53:02;;;;;;;3.05;1.63;;;;;;;;;;6224828;22;20026;-90
2020/12/24 01:55:46;;;;;;;7.00;2.45;;;;;;;;;;6232276;22;20075;-91
2020/12/24 01:58:24;;;;;;;1.40;1.35;;;;;;;;;;6274733;22;20040;-92
2020/12/24 02:01:05;;;;;;;1.77;1.67;;;;;;;;;;6248422;22;20019;-91
2020/12/24 02:03:37;;;;;;;5.45;1.75;;;;;;;;;;6274762;22;20012;-91
2020/12/24 02:06:16;;;;;;;5.32;1.50;;;;;;;;;;6297389;22;20063;-91
2020/12/24 02:08:59;;;;;;;5.20;2.53;;;;;;;;;;6276052;22;20594;-90
2020/12/24 02:12:29;;;;;;;2.28;1.73;;;7.00;99.90;;;;;;6301498;22;20015;-90
2020/12/24 02:15:58;;;;;;;3.00;2.20;;;;;;;;;;6218692;23;20009;-90
2020/12/24 02:18:45;;;;;;;2.25;1.20;;;;;;;;;;6183032;23;20056;-91
2020/12/24 02:21:50;;;;;;;3.70;1.80;;;;;;;;;;6208431;23;20012;-90
2020/12/24 02:24:53;;;;;;;2.05;1.50;;;;;;;;;;6218749;23;20009;-91
2020/12/24 02:27:37;;;;;;;1.75;1.35;;;;;;;;;;6183651;23;20057;-89
2020/12/24 02:30:32;;;;;;;5.55;1.50;;;;;;;;;;6206005;23;20068;-89
2020/12/24 02:33:05;;;;;;;2.90;1.80;;;;;;;;;;6217231;22;20027;-91
2020/12/24 02:35:38;;;;;;;7.40;3.08;;;;;;;;;;6218619;23;20020;-91
2020/12/24 02:38:11;;;;;;;2.67;2.13;;;;;;;;;;6295299;22;20024;-95
2020/12/24 02:40:44;;;;;;;2.55;1.42;;;;;;;;;;6269861;22;20072;-91
2020/12/24 02:43:19;;;;;;;1.92;1.33;;;;;;;;;;6245599;23;20015;-90
2020/12/24 02:46:01;;;;;;;6.05;1.27;;;;;;;;;;6197775;22;20060;-90
2020/12/24 02:48:47;;;;;;;2.03;1.92;;;;;;;;;;6221288;22;20056;-92
2020/12/24 02:51:32;;;;;;;2.53;1.55;;;;;;;;;;6292937;22;20004;-90
2020/12/24 02:54:22;;;;;;;2.90;1.45;;;;;;;;;;6264918;22;20012;-90
2020/12/24 02:56:54;;;;;;;11.10;1.60;;;;;;;;;;6296720;22;20028;-90
2020/12/24 02:59:44;;;;;;;3.42;1.70;;;;;;;;;;6237782;23;20076;-90
2020/12/24 03:02:28;;;;;;;5.75;2.10;;;;;;;;;;6265418;22;20020;-89
2020/12/24 03:05:01;;;;;;;1.98;1.70;;;;;;;;;;6294808;22;20060;-90
2020/12/24 03:07:32;;;;;;;2.33;1.40;;;;;;;;;;6243873;23;20088;-90
2020/12/24 03:10:09;;;;;;;1.88;1.38;;;;;;;;;;6270094;22;20059;-90
2020/12/24 03:12:43;;;;;;;6.85;1.58;;;;;;;;;;6243614;23;20022;-90
2020/12/24 03:15:16;;;;;;;2.67;1.63;;;;;;;;;;6246769;22;20068;-91
2020/12/24 03:17:49;;;;;;;3.55;1.60;;;;;;;;;;6243372;23;20072;-91
2020/12/24 03:20:19;;;;;;;9.02;2.83;;;;;;;;;;6269411;22;20060;-90
2020/12/24 03:22:48;;;;;;;4.18;1.67;;;;;;;;;;6244049;22;20092;-91
2020/12/24 03:25:18;;;;;;;6.47;2.10;;;;;;;;;;6268760;22;20030;-91
2020/12/24 03:27:47;;;;;;;6.15;2.10;;;;;;;;;;6244938;22;20064;-91
2020/12/24 03:30:19;;;;;;;3.55;1.70;;;;;;;;;;6271129;22;20068;-90
2020/12/24 03:32:49;;;;;;;3.28;1.80;;;;;;;;;;6247855;22;20019;-91
2020/12/24 03:35:19;;;;;;;3.63;1.50;;;;;;;;;;6239440;22;20001;-90
2020/12/24 03:37:49;;;;;;;2.17;1.48;;;;;;;;;;6215301;23;20015;-90
2020/12/24 03:40:19;;;;;;;2.40;1.90;;;;;;;;;;6214771;22;20060;-91
2020/12/24 03:43:02;;;;;;;7.40;1.95;;;;;;;;;;6212804;22;20068;-90
2020/12/24 03:45:30;;;;;;;2.13;1.65;;;;;;;;;;6265006;22;20072;-91
2020/12/24 03:47:59;;;;;;;4.13;1.67;;;;;;;;;;6240713;22;20068;-90
2020/12/24 03:50:38;;;;;;;3.40;1.50;;;;;;;;;;6189709;22;20089;-90
2020/12/24 03:53:12;;;;;;;6.35;2.47;;;;;;;;;;6214157;23;20056;-92
2020/12/24 03:55:44;;;;;;;5.72;1.92;;;;;;;;;;6239248;23;20141;-89
2020/12/24 03:58:12;;;;;;;5.57;2.30;;;;;;;;;;6215213;23;20088;-89
2020/12/24 04:00:40;;;;;;;3.45;1.40;;;;;;;;;;6242186;22;20060;-90
2020/12/24 04:03:11;;;;;;;2.17;2.00;;;;;;;;;;6217011;22;20072;-91
2020/12/24 04:05:41;;;;;;;6.22;1.50;;;;;;;;;;6240976;22;20066;-90
2020/12/24 04:08:13;;;;;;;5.22;2.03;;;;;;;;;;6241397;22;20072;-91
2020/12/24 04:10:57;;;;;;;1.73;1.48;;;;;;;;;;6190412;23;20116;-91
2020/12/24 04:13:26;;;;;;;7.20;1.52;;;;;;;;;;6241901;22;20071;-92
2020/12/24 04:15:58;;;;;;;4.53;1.65;;;;;;;;;;6241628;22;20103;-91
2020/12/24 04:18:36;;;;;;;2.08;1.60;;;;;;;;;;6241932;22;20075;-90
2020/12/24 04:21:10;;;;;;;4.43;1.73;;;;;;;;;;6262380;22;20064;-90
2020/12/24 04:23:39;;;;;;;3.22;2.33;;;;;;;;;;6216585;22;20075;-91
2020/12/24 04:26:09;;;;;;;2.92;1.50;;;;;;;;;;6241424;22;20068;-90
2020/12/24 04:28:53;;;;;;;1.30;1.20;;;;;;;;;;6190393;22;20068;-90
2020/12/24 04:31:28;;;;;;;1.95;1.67;;;;;;;;;;6241200;22;20004;-91
2020/12/24 04:34:11;;;;;;;2.72;1.63;;;;;;;;;;6160941;23;20061;-90
2020/12/24 04:36:43;;;;;;;2.78;1.63;;;;;;;;;;6162189;23;20061;-90
2020/12/24 04:39:11;;;;;;;4.32;1.52;;;;;;;;;;6161236;23;20073;-88
2020/12/24 04:41:47;;;;;;;1.77;1.23;;;;;;;;;;6185510;23;20025;-90
2020/12/24 04:44:36;;;;;;;2.22;1.40;;;;;;;;;;6183288;23;20439;-90
2020/12/24 04:47:09;;;;;;;4.97;1.38;;;;;;;;;;6185616;23;20009;-90
2020/12/24 04:49:39;;;;;;;;;;;6.90;99.90;;;;;;6161865;23;20057;-91
2020/12/24 04:52:10;;;;;;;6.72;1.83;;;;;;;;;;6183867;23;20010;-89
2020/12/24 04:54:39;;;;;;;1.92;1.60;;;;;;;;;;6157153;23;20005;-90
2020/12/24 04:57:09;;;;;;;2.40;1.60;;;;;;;;;;6135918;23;20036;-89
2020/12/24 04:59:54;;;;;;;3.45;1.75;;;;;;;;;;6163826;23;20112;-90
2020/12/24 05:02:23;;;;;;;2.45;1.50;;;;;;;;;;6159995;23;20080;-93
2020/12/24 05:05:04;;;;;;;4.53;1.27;;;;;;;;;;6156580;23;20031;-90
2020/12/24 05:07:32;;;;;;;1.88;1.52;;;;;;;;;;6157660;23;20040;-91
2020/12/24 05:10:46;;;;;;;4.63;1.83;;;;;;;;;;6161121;23;20015;-90
2020/12/24 05:13:17;;;;;;;5.60;3.05;;;;;;;;;;6129270;23;20028;-91
2020/12/24 05:15:46;;;;;;;3.95;2.03;;;;;;;;;;6179143;23;20012;-91
2020/12/24 05:18:24;;;;;;;4.13;2.22;;;;;;;;;;6127230;23;20469;-90
2020/12/24 05:20:52;;;;;;;7.90;3.95;;;;;;;;;;6151346;23;20013;-91
2020/12/24 05:23:22;;;;;;;6.32;2.40;;;;;;;;;;6150498;23;20036;-90
2020/12/24 05:25:53;;;;;;;4.43;2.30;;;;;;;;;;6126492;23;20023;-88
2020/12/24 05:28:25;;;;;;;2.67;2.08;;;;;;;;;;6132042;23;20005;-88
2020/12/24 05:30:58;;;;;;;5.75;2.88;;;;;;;;;;6157619;23;20017;-91
2020/12/24 05:33:30;;;;;;;17.60;4.50;;;;;;;;;;6163365;23;20035;-90
2020/12/24 05:36:21;;;;;;;12.27;2.58;;;;;;;;;;6180146;23;20023;-89
2020/12/24 05:38:55;;;;;;;12.00;3.17;;;;;;;;;;6147468;23;20012;-90
2020/12/24 05:41:27;;;;;;;7.68;2.08;;;;;;;;;;6171918;23;20135;-91
2020/12/24 05:44:03;;;;;;;4.05;2.60;;;;;;;;;;6174202;23;20023;-90
2020/12/24 05:46:51;;;;;;;12.48;2.80;;;6.90;99.90;;;;;;6221202;23;20028;-91
2020/12/24 05:49:31;;;;;;;6.80;3.40;;;;;;;;;;6192749;23;20017;-91
2020/12/24 05:52:02;;;;;;;11.45;4.63;;;;;;;;;;6171226;23;20025;-90
2020/12/24 05:54:36;;;;;;;10.52;2.97;;;;;;;;;;6171657;23;20025;-92
2020/12/24 05:57:10;;;;;;;8.98;3.05;;;;;;;;;;6204270;23;20021;-93
2020/12/24 05:59:59;;;;;;;7.38;2.83;;;;;;;;;;6153363;23;20025;-91
2020/12/24 06:02:48;;;;;;;8.10;2.97;;;;;;;;;;6171051;23;20025;-90
2020/12/24 06:05:24;;;;;;;18.17;3.45;;;;;;;;;;6146765;23;20028;-92
2020/12/24 06:08:17;;;;;;;9.75;3.38;;;;;;;;;;6191861;23;20032;-90
2020/12/24 06:11:09;;;;;;;14.17;2.97;;;;;;;;;;6197540;23;20021;-90
2020/12/24 06:13:50;;;;;;;8.75;2.97;;;;;;;;;;6197351;23;20017;-90
2020/12/24 06:16:31;;;;;;;16.73;4.25;;;6.70;99.90;;;;;;6193017;23;20105;-89
2020/12/24 06:19:14;;;;;;;15.98;4.90;;;;;;;;;;6144819;23;20024;-91
2020/12/24 06:22:07;;;;;;;;;;;6.90;99.90;;;;;;6194198;23;20032;-89
2020/12/24 06:24:42;;;;;;;4.63;2.10;;;;;;;;;;6174609;23;19972;-91
2020/12/24 06:27:43;;;;;;;12.13;3.17;;;;;;;;;;6155378;23;20017;-87
2020/12/24 06:30:23;;;;;;;6.72;2.78;;;;;;;;;;6183120;23;20005;-92
2020/12/24 06:33:01;;;;;;;6.25;2.40;;;;;;;;;;6213341;22;20031;-90
2020/12/24 06:35:50;;;;;;;21.50;3.38;;;;;;;;;;6210299;23;20020;-91
2020/12/24 06:38:49;;;;;;;9.80;3.47;;;;;;;;;;6233785;23;20030;-91
2020/12/24 06:41:41;;;;;;;8.52;2.20;;;;;;;;;;6234226;23;20387;-93
2020/12/24 06:44:10;;;;;;;7.22;2.63;;;;;;;;;;6209234;23;20020;-89
2020/12/24 06:46:58;;;;;;;15.30;2.47;;;6.50;99.90;;;;;;6177605;23;20020;-89
2020/12/24 06:49:31;;;;;;;4.95;2.63;;;;;;;;;;6224921;23;20024;-91
2020/12/24 06:52:10;;;;;;;7.10;2.55;;;;;;;;;;6205757;23;20022;-89
2020/12/24 06:54:44;;;;;;;7.65;2.70;;;;;;;;;;6205586;23;20021;-90
2020/12/24 06:57:25;;;;;;;15.40;2.30;;;6.30;99.90;;;;;;6228762;23;20023;-89
2020/12/24 07:00:24;;;;;;;9.77;3.00;;;6.20;99.90;;;;;;6203749;23;20022;-87
2020/12/24 07:02:52;;;;;;;8.75;2.65;;;6.10;99.90;;;;;;6226977;23;20030;-85
2020/12/24 07:05:42;;;;;;;9.23;2.42;;;6.00;99.90;;;;;;6205207;23;20030;-90
2020/12/24 07:08:47;;;;;;;9.55;2.88;;;;;;;;;;6208751;23;20030;-90
2020/12/24 07:12:02;;;;;;;14.70;3.75;;;5.90;99.90;;;;;;6200662;23;20015;-89
2020/12/24 07:15:36;;;;;;;5.57;2.25;;;;;;;;;;6274662;23;20038;-90
2020/12/24 07:18:13;;;;;;;4.75;2.40;;;5.70;99.90;;;;;;6240117;23;20020;-90
2020/12/24 07:21:06;;;;;;;6.53;2.92;;;;;;;;;;6235233;23;20034;-89
2020/12/24 07:24:39;;;;;;;8.45;2.88;;;;;;;;;;6242710;23;20020;-88
2020/12/24 07:27:12;;;;;;;12.52;2.75;;;;;;;;;;6233257;23;20020;-87
2020/12/24 07:29:49;;;;;;;8.75;3.40;;;5.50;99.90;;;;;;6216298;23;20026;-89
2020/12/24 07:32:26;;;;;;;7.22;3.17;;;;;;;;;;6181967;23;20027;-89
2020/12/24 07:35:02;;;;;;;6.82;1.80;;;;;;;;;;6222664;23;20029;-85
2020/12/24 07:37:33;;;;;;;11.55;4.60;;;;;;;;;;6196162;23;20021;-86
2020/12/24 07:40:01;;;;;;;4.95;1.83;;;;;;;;;;6194012;23;20563;-87
2020/12/24 07:42:31;;;;;;;6.40;2.47;;;;;;;;;;6192732;23;20025;-86
2020/12/24 07:45:06;;;;;;;8.43;2.00;;;;;;;;;;6219319;23;20027;-86
2020/12/24 07:47:37;;;;;;;6.50;2.90;;;;;;;;;;6193521;23;20021;-87
2020/12/24 07:50:07;;;;;;;4.13;2.38;;;;;;;;;;6213929;23;20341;-87
2020/12/24 07:52:37;;;;;;;11.23;3.50;;;;;;;;;;6191932;23;20437;-88
2020/12/24 07:55:09;;;;;;;12.02;2.47;;;;;;;;;;6192353;23;20017;-90
2020/12/24 07:57:39;;;;;;;8.30;2.38;;;;;;;;;;6193411;23;20028;-89
2020/12/24 08:00:07;;;;;;;11.00;2.72;;;;;;;;;;6143200;23;20020;-88
2020/12/24 08:02:36;;;;;;;11.65;2.35;;;;;;;;;;6218583;23;20035;-87
2020/12/24 08:05:08;;;;;;;9.55;3.55;;;;;;;;;;6193429;23;20025;-88
2020/12/24 08:07:37;;;;;;;12.40;3.30;;;;;;;;;;6217409;23;20084;-88
2020/12/24 08:10:11;;;;;;;2.55;1.70;;;4.90;99.90;;;;;;6192450;23;20017;-86
2020/12/24 08:12:40;;;;;;;3.70;2.30;;;;;;;;;;6119302;23;20471;-88
2020/12/24 08:15:14;;;;;;;6.75;2.67;;;;;;;;;;6191625;23;20021;-86
2020/12/24 08:17:58;;;;;;;7.43;2.85;;;5.00;99.90;;;;;;6223182;23;20025;-88
2020/12/24 08:20:48;;;;;;;9.25;2.30;;;4.90;99.90;;;;;;6215688;23;20017;-86
2020/12/24 08:23:52;;;;;;;4.78;2.75;;;4.90;99.90;;;;;;6191526;23;20021;-87
2020/12/24 08:26:20;;;;;;;6.88;3.50;;;;;;;;;;6191041;23;20021;-88
2020/12/24 08:28:51;;;;;;;6.85;2.28;;;;;;;;;;6190123;23;20013;-87
2020/12/24 08:31:28;;;;;;;6.45;2.40;;;4.90;99.90;;;;;;6226198;23;20467;-88
2020/12/24 08:33:58;;;;;;;15.63;2.85;;;;;;;;;;6174119;23;20035;-87
2020/12/24 08:36:29;;;;;;;10.77;2.50;;;4.90;99.90;;;;;;6197583;23;20620;-89
2020/12/24 08:39:05;;;;;;;5.35;2.70;;;;;;;;;;6150766;23;20020;-88
2020/12/24 08:41:48;;;;;;;9.70;3.00;;;;;;;;;;6195952;23;20023;-87
2020/12/24 08:44:18;;;;;;;9.40;2.30;;;;;;;;;;6221966;23;20047;-87
2020/12/24 08:47:00;;;;;;;2.63;2.10;;;4.90;99.90;;;;;;6221398;23;20023;-89
2020/12/24 08:49:31;;;;;;;15.00;3.17;;;4.60;99.90;;;;;;6220603;23;20021;-87
2020/12/24 08:52:22;;;;;;;8.50;2.85;;;4.70;99.90;;;;;;6197726;23;20020;-92
2020/12/24 08:55:03;;;;;;;6.38;3.00;;;4.70;99.90;;;;;;6174550;23;20360;-88
2020/12/24 08:57:36;;;;;;;13.60;5.53;;;;;;;;;;6199083;23;20024;-89
2020/12/24 09:00:20;;;;;;;4.72;3.22;;;;;;;;;;6228233;23;20013;-89
2020/12/24 09:03:25;;;;;;;9.55;2.88;;;;;;;;;;6175158;23;20020;-89
2020/12/24 09:05:54;;;;;;;6.50;3.25;;;;;;;;;;6175500;23;20021;-87
2020/12/24 09:08:28;;;;;;;6.15;2.80;;;;;;;;;;6197497;23;20474;-88
2020/12/24 09:11:24;;;;;;;8.77;2.95;;;4.60;99.90;;;;;;6198328;23;20020;-86
2020/12/24 09:14:03;;;;;;;4.78;2.38;;;;;;;;;;6198760;23;20024;-86
2020/12/24 09:16:35;;;;;;;3.78;2.97;;;;;;;;;;6223672;23;20027;-87
2020/12/24 09:19:08;;;;;;;5.75;2.40;;;;;;;;;;6197686;23;20327;-89
2020/12/24 09:21:50;;;;;;;5.50;4.35;;;;;;;;;;6226003;23;20024;-87
2020/12/24 09:24:48;;;;;;;7.10;2.65;;;;;;;;;;6218975;23;20024;-87
2020/12/24 09:27:23;;;;;;;6.68;2.40;;;;;;;;;;6222492;23;20026;-85
2020/12/24 09:30:01;;;;;;;16.02;2.85;;;;;;;;;;6199513;23;20042;-86
2020/12/24 09:32:30;;;;;;;2.75;2.42;;;;;;;;;;6201917;23;20016;-87
2020/12/24 09:35:02;;;;;;;9.43;3.50;;;;;;;;;;6196087;23;20461;-86
2020/12/24 09:38:11;;;;;;;5.20;2.38;;;4.70;99.90;;;;;;6196468;23;20246;-85
2020/12/24 09:40:43;;;;;;;4.43;1.90;;;;;;;;;;6200331;23;20031;-88
2020/12/24 09:43:19;;;;;;;5.45;2.30;;;;;;;;;;6200552;23;20017;-92
2020/12/24 09:46:05;;;;;;;4.85;1.83;;;;;;;;;;6196731;23;20028;-87
2020/12/24 09:48:36;;;;;;;5.53;3.03;;;;;;;;;;6199656;23;20027;-87
2020/12/24 09:51:09;;;;;;;5.75;2.40;;;;;;;;;;6223461;23;20024;-87
2020/12/24 09:53:51;;;;;;;2.78;1.85;;;;;;;;;;6182324;23;20025;-88
2020/12/24 09:56:37;;;;;;;3.20;2.13;;;;;;;;;;6221775;23;20021;-87
2020/12/24 09:59:10;;;;;;;3.95;2.40;;;;;;;;;;6202134;23;20014;-87
2020/12/24 10:01:40;;;;;;;5.47;3.33;;;;;;;;;;6207334;23;20016;-90
2020/12/24 10:04:10;;;;;;;;;;;4.70;99.90;;;;;;6198424;23;20016;-86
2020/12/24 10:06:42;;;;;;;9.40;2.35;;;;;;;;;;6225975;23;19920;-87
2020/12/24 10:09:13;;;;;;;9.80;3.15;;;;;;;;;;6197764;23;20027;-88
2020/12/24 10:11:45;;;;;;;4.82;2.22;;;;;;;;;;6194457;23;20023;-89
2020/12/24 10:14:16;;;;;;;4.70;2.28;;;;;;;;;;6175861;23;20025;-86
2020/12/24 10:16:51;;;;;;;3.58;1.88;;;;;;;;;;6202366;23;20020;-88
2020/12/24 10:20:10;;;;;;;6.90;1.63;;;;;;;;;;6229874;23;20035;-88
2020/12/24 10:23:31;;;;;;;2.08;1.90;;;;;;;;;;6227629;23;20035;-89
2020/12/24 10:26:21;;;;;;;5.47;1.80;;;;;;;;;;6203269;23;20021;-85
2020/12/24 10:29:15;;;;;;;4.07;2.15;;;;;;;;;;6199158;23;20031;-86
2020/12/24 10:35:10;;;;;;;9.32;2.30;;;;;;;;;;6259812;23;20032;-84
2020/12/24 10:37:47;;;;;;;6.05;2.40;;;;;;;;;;6194526;23;20016;-85
2020/12/24 10:40:54;;;;;;;6.03;3.08;;;5.00;99.90;;;;;;6226753;23;20020;-87
2020/12/24 10:43:40;;;;;;;6.05;2.20;;;;;;;;;;6232488;23;20028;-88
2020/12/24 10:46:25;;;;;;;7.47;2.03;;;5.00;99.90;;;;;;6233424;23;20008;-87
2020/12/24 10:48:57;;;;;;;14.98;2.72;;;;;;;;;;6207871;23;20020;-89
2020/12/24 10:51:28;;;;;;;2.83;1.83;;;;;;;;;;6256735;23;20194;-86
2020/12/24 10:54:10;;;;;;;1.75;1.48;;;;;;;;;;6210132;23;20023;-87
2020/12/24 10:57:06;;;;;;;6.95;2.92;;;5.00;99.90;;;;;;6233366;23;20013;-86
2020/12/24 10:59:40;;;;;;;3.95;2.13;;;;;;;;;;6183478;23;20016;-84
2020/12/24 11:02:10;;;;;;;6.43;2.55;;;;;;;;;;6204025;23;20013;-85
2020/12/24 11:04:42;;;;;;;;;;;4.90;99.90;;;;;;6207190;23;20363;-84
2020/12/24 11:07:17;;;;;;;5.72;2.25;;;;;;;;;;6257912;23;19916;-87
2020/12/24 11:09:46;;;;;;;1.70;1.60;;;;;;;;;;6228199;23;20026;-85
2020/12/24 11:12:18;;;;;;;3.13;1.83;;;;;;;;;;6227840;23;20020;-87
2020/12/24 11:14:46;;;;;;;2.08;1.60;;;;;;;;;;6204574;23;20020;-85
2020/12/24 11:17:17;;;;;;;3.50;1.73;;;;;;;;;;6231126;23;20366;-84
2020/12/24 11:19:48;;;;;;;4.95;1.85;;;;;;;;;;6255804;23;20024;-87
2020/12/24 11:22:19;;;;;;;5.03;1.65;;;;;;;;;;6251358;23;20038;-89
2020/12/24 11:24:49;;;;;;;5.88;2.20;;;;;;;;;;6251853;23;20026;-88
2020/12/24 11:27:18;;;;;;;4.18;2.65;;;;;;;;;;6226743;23;20020;-85
2020/12/24 11:29:47;;;;;;;2.88;2.05;;;;;;;;;;6251347;23;20119;-86
2020/12/24 11:32:17;;;;;;;4.63;2.00;;;;;;;;;;6250196;23;20013;-85
2020/12/24 11:34:47;;;;;;;2.42;2.30;;;;;;;;;;6176007;23;20028;-87
2020/12/24 11:37:18;;;;;;;3.15;1.67;;;;;;;;;;6196819;23;20020;-84
2020/12/24 11:39:50;;;;;;;11.35;3.25;;;;;;;;;;6198702;23;20024;-86
2020/12/24 11:42:22;;;;;;;6.28;2.35;;;;;;;;;;6224343;23;20023;-88
2020/12/24 11:44:50;;;;;;;4.05;2.92;;;;;;;;;;6229148;23;20015;-87
2020/12/24 11:47:36;;;;;;;5.05;1.60;;;;;;;;;;6179989;23;20030;-88
2020/12/24 11:50:07;;;;;;;6.55;1.90;;;;;;;;;;6203325;23;20154;-88
2020/12/24 11:52:39;;;;;;;3.03;1.40;;;;;;;;;;6151792;23;20023;-90
2020/12/24 11:55:12;;;;;;;2.60;1.98;;;;;;;;;;6203827;23;20020;-86
2020/12/24 11:57:41;;;;;;;3.78;2.25;;;;;;;;;;6198233;23;20017;-85
2020/12/24 12:00:14;;;;;;;1.45;1.35;;;;;;;;;;6201241;23;20021;-84
2020/12/24 12:02:46;;;;;;;5.70;2.47;;;;;;;;;;6197379;23;20016;-87
2020/12/24 12:05:21;;;;;;;2.33;2.13;;;;;;;;;;6226400;23;20024;-87
2020/12/24 12:07:53;;;;;;;4.22;1.70;;;;;;;;;;6173991;23;20016;-85
2020/12/24 12:10:22;;;;;;;2.42;1.60;;;;;;;;;;6195196;23;20031;-85
2020/12/24 12:12:51;;;;;;;4.27;1.67;;;;;;;;;;6223080;23;20027;-87
2020/12/24 12:15:22;;;;;;;3.03;1.70;;;;;;;;;;6195115;23;20250;-86
2020/12/24 12:17:57;;;;;;;1.98;1.67;;;;;;;;;;6206150;23;20013;-87
2020/12/24 12:20:30;;;;;;;3.67;1.60;;;;;;;;;;6210246;23;20020;-87
2020/12/24 12:22:59;;;;;;;9.47;2.70;;;;;;;;;;6232397;23;20214;-89
2020/12/24 12:25:34;;;;;;;3.28;2.13;;;;;;;;;;6186852;23;20017;-85
2020/12/24 12:28:02;;;;;;;2.00;1.58;;;;;;;;;;6159965;23;20027;-85
2020/12/24 12:30:33;;;;;;;4.20;2.30;;;;;;;;;;6204666;23;20034;-85
2020/12/24 12:33:08;;;;;;;2.17;1.83;;;;;;;;;;6187219;23;20035;-86
2020/12/24 12:36:11;;;;;;;8.02;1.80;;;;;;;;;;6214411;23;20218;-84
2020/12/24 12:38:53;;;;;;;4.78;1.70;;;;;;;;;;6207205;23;20016;-85
2020/12/24 12:41:50;;;;;;;4.85;2.50;;;;;;;;;;6188385;23;20024;-84
2020/12/24 12:44:18;;;;;;;5.65;1.83;;;;;;;;;;6207213;23;20029;-87
2020/12/24 12:47:02;;;;;;;2.30;1.90;;;;;;;;;;6180703;23;20031;-87
2020/12/24 12:49:34;;;;;;;6.78;1.83;;;;;;;;;;6207127;23;20407;-87
2020/12/24 12:52:06;;;;;;;16.70;5.95;;;;;;;;;;6182826;23;20028;-87
2020/12/24 12:54:44;;;;;;;2.67;2.10;;;;;;;;;;6206583;23;20027;-87
2020/12/24 12:57:20;;;;;;;4.93;2.22;;;;;;;;;;6204868;23;20012;-87
2020/12/24 13:00:08;;;;;;;5.00;3.28;;;5.70;99.90;;;;;;6231651;23;20060;-89
2020/12/24 13:02:42;;;;;;;2.05;1.85;;;;;;;;;;6235629;23;20016;-86
2020/12/24 13:05:23;;;;;;;2.40;1.70;;;;;;;;;;6232237;23;20021;-87
2020/12/24 13:08:07;;;;;;;2.75;2.22;;;;;;;;;;6185738;23;20023;-87
2020/12/24 13:10:39;;;;;;;9.07;2.38;;;;;;;;;;6157315;23;20030;-85
2020/12/24 13:13:11;;;;;;;4.20;1.88;;;;;;;;;;6205668;23;20017;-85
2020/12/24 13:15:48;;;;;;;4.82;1.67;;;;;;;;;;6212885;23;20023;-87
2020/12/24 13:18:19;;;;;;;3.55;2.00;;;;;;;;;;6201944;23;20017;-86
2020/12/24 13:20:50;;;;;;;2.28;1.58;;;;;;;;;;6201602;23;20029;-86
2020/12/24 13:23:18;;;;;;;2.00;1.85;;;;;;;;;;6179133;23;20633;-86
2020/12/24 13:26:02;;;;;;;5.47;2.60;;;;;;;;;;6181112;23;20026;-85
2020/12/24 13:28:39;;;;;;;3.63;2.30;;;;;;;;;;6226922;23;20024;-87
2020/12/24 13:31:08;;;;;;;4.20;2.70;;;;;;;;;;6177874;23;20035;-86
2020/12/24 13:33:36;;;;;;;4.57;2.00;;;;;;;;;;6208480;23;20017;-86
2020/12/24 13:36:07;;;;;;;5.88;2.17;;;;;;;;;;6204053;23;20021;-87
2020/12/24 13:38:43;;;;;;;6.90;2.10;;;;;;;;;;6177355;23;20020;-86
2020/12/24 13:41:17;;;;;;;1.60;1.50;;;;;;;;;;6223615;23;20028;-87
2020/12/24 13:43:48;;;;;;;15.13;2.70;;;;;;;;;;6224546;23;20574;-85
2020/12/24 13:46:20;;;;;;;7.60;1.80;;;;;;;;;;6201434;23;20017;-86
2020/12/24 13:48:50;;;;;;;1.75;1.65;;;;;;;;;;6177617;23;20020;-87
2020/12/24 13:51:27;;;;;;;2.10;1.77;;;;;;;;;;6228714;23;20020;-86
2020/12/24 13:53:56;;;;;;;2.83;1.70;;;;;;;;;;6224991;23;20031;-87
2020/12/24 13:56:24;;;;;;;3.83;1.95;;;;;;;;;;6198974;23;20030;-86
2020/12/24 13:58:52;;;;;;;3.97;1.90;;;;;;;;;;6223200;23;20019;-89
2020/12/24 14:01:19;;;;;;;10.60;2.30;;;;;;;;;;6202157;23;20031;-88
2020/12/24 14:03:49;;;;;;;2.50;2.30;;;;;;;;;;6179912;23;20192;-90
2020/12/24 14:06:20;;;;;;;5.95;1.88;;;;;;;;;;6210727;23;20005;-88
2020/12/24 14:08:53;;;;;;;5.60;2.13;;;;;;;;;;6208584;23;20020;-88
2020/12/24 14:11:25;;;;;;;5.75;1.95;;;;;;;;;;6207205;23;20016;-88
2020/12/24 14:14:02;;;;;;;3.25;2.15;;;;;;;;;;6181099;23;20083;-90
2020/12/24 14:16:43;;;;;;;5.13;2.30;;;;;;;;;;6184200;23;20023;-89
2020/12/24 14:19:30;;;;;;;4.97;2.53;;;;;;;;;;6225665;23;20020;-86
2020/12/24 14:22:07;;;;;;;2.50;2.25;;;;;;;;;;6199519;23;20020;-87
2020/12/24 14:24:37;;;;;;;5.77;2.17;;;;;;;;;;6199282;23;20020;-87
2020/12/24 14:27:22;;;;;;;4.65;2.95;;;;;;;;;;6180018;23;20027;-85
2020/12/24 14:29:54;;;;;;;9.25;3.78;;;;;;;;;;6178422;23;20017;-87
2020/12/24 14:32:43;;;;;;;5.43;3.47;;;;;;;;;;6157256;23;20025;-85
2020/12/24 14:35:14;;;;;;;7.97;4.03;;;;;;;;;;6184795;23;20020;-86
2020/12/24 14:38:01;;;;;;;3.30;2.30;;;;;;;;;;6184168;23;20023;-85
2020/12/24 14:40:33;;;;;;;4.25;2.85;;;;;;;;;;6203058;23;20131;-91
2020/12/24 14:43:20;;;;;;;4.72;3.33;;;;;;;;;;6156597;23;20017;-87
2020/12/24 14:45:57;;;;;;;2.75;2.45;;;;;;;;;;6158611;23;20016;-87
2020/12/24 14:48:39;;;;;;;5.40;2.58;;;;;;;;;;6221456;23;20020;-87
2020/12/24 14:51:21;;;;;;;6.22;2.10;;;;;;;;;;6230450;23;20182;-89
2020/12/24 14:53:51;;;;;;;2.20;1.70;;;;;;;;;;6201348;23;20023;-87
2020/12/24 14:56:35;;;;;;;4.13;2.15;;;;;;;;;;6208642;23;20043;-88
2020/12/24 14:59:12;;;;;;;4.25;2.33;;;;;;;;;;6201701;23;20324;-86
2020/12/24 15:01:46;;;;;;;4.82;2.60;;;;;;;;;;6186954;23;20021;-88
2020/12/24 15:04:19;;;;;;;2.53;2.22;;;;;;;;;;6207999;23;20028;-87
2020/12/24 15:07:10;;;;;;;10.32;2.85;;;;;;;;;;6182363;23;20456;-86
2020/12/24 15:09:39;;;;;;;9.57;2.83;;;;;;;;;;6179422;23;20020;-88
2020/12/24 15:12:43;;;;;;;4.38;2.92;;;;;;;;;;6181829;23;20023;-88
2020/12/24 15:15:18;;;;;;;7.10;2.15;;;;;;;;;;6201323;23;20024;-89
2020/12/24 15:17:59;;;;;;;4.90;2.42;;;;;;;;;;6228265;23;20031;-86
2020/12/24 15:20:32;;;;;;;3.58;2.00;;;;;;;;;;6205725;23;20038;-88
2020/12/24 15:23:02;;;;;;;3.40;2.65;;;;;;;;;;6201832;23;20020;-87
2020/12/24 15:25:42;;;;;;;7.33;3.03;;;;;;;;;;6223156;23;20072;-87
2020/12/24 15:28:27;;;;;;;5.45;3.63;;;;;;;;;;6204447;23;20249;-86
2020/12/24 15:31:03;;;;;;;6.63;2.30;;;;;;;;;;6197136;23;20020;-86
2020/12/24 15:33:31;;;;;;;5.78;2.00;;;;;;;;;;6178733;23;20021;-85
2020/12/24 15:36:09;;;;;;;6.18;3.17;;;;;;;;;;6178006;23;20024;-87
2020/12/24 15:38:42;;;;;;;5.35;2.35;;;5.50;99.90;;;;;;6226340;23;20016;-87
2020/12/24 15:41:13;;;;;;;10.02;2.92;;;;;;;;;;6170188;23;20030;-88
2020/12/24 15:43:43;;;;;;;5.70;2.90;;;;;;;;;;6195034;23;20013;-89
2020/12/24 15:46:14;;;;;;;8.05;3.88;;;;;;;;;;6194554;23;20025;-87
2020/12/24 15:48:43;;;;;;;8.13;3.25;;;;;;;;;;6198530;23;20021;-85
2020/12/24 15:51:11;;;;;;;4.05;3.28;;;;;;;;;;6220238;23;20020;-87